sensor_id;sensor_type;location;lat;lon;timestamp;temperature;humidity
61021;DHT22;66055;43.496;3.710;2023-01-15T00:01:30;9.50;78.50
61021;DHT22;66055;43.496;3.710;2023-01-15T00:03:57;9.50;78.90
61021;DHT22;66055;43.496;3.710;2023-01-15T00:06:24;9.50;78.40
61021;DHT22;66055;43.496;3.710;2023-01-15T00:08:51;9.50;78.70
61021;DHT22;66055;43.496;3.710;2023-01-15T00:11:17;9.50;78.20
61021;DHT22;66055;43.496;3.710;2023-01-15T00:13:43;9.50;78.50
61021;DHT22;66055;43.496;3.710;2023-01-15T00:16:13;9.50;78.90
61021;DHT22;66055;43.496;3.710;2023-01-15T00:18:39;9.50;78.50
61021;DHT22;66055;43.496;3.710;2023-01-15T00:21:08;9.50;78.20
61021;DHT22;66055;43.496;3.710;2023-01-15T00:23:34;9.50;78.10
61021;DHT22;66055;43.496;3.710;2023-01-15T00:26:20;9.60;78.30
61021;DHT22;66055;43.496;3.710;2023-01-15T00:29:05;9.60;78.50
61021;DHT22;66055;43.496;3.710;2023-01-15T00:31:32;9.60;78.10
61021;DHT22;66055;43.496;3.710;2023-01-15T00:33:59;9.60;78.10
61021;DHT22;66055;43.496;3.710;2023-01-15T00:36:25;9.50;77.80
61021;DHT22;66055;43.496;3.710;2023-01-15T00:38:51;9.60;78.50
61021;DHT22;66055;43.496;3.710;2023-01-15T00:41:16;9.60;78.50
61021;DHT22;66055;43.496;3.710;2023-01-15T00:43:42;9.60;79.10
61021;DHT22;66055;43.496;3.710;2023-01-15T00:46:08;9.60;78.70
61021;DHT22;66055;43.496;3.710;2023-01-15T00:48:35;9.60;78.70
61021;DHT22;66055;43.496;3.710;2023-01-15T00:51:01;9.60;78.90
61021;DHT22;66055;43.496;3.710;2023-01-15T00:53:26;9.50;78.70
61021;DHT22;66055;43.496;3.710;2023-01-15T00:55:52;9.40;78.40
61021;DHT22;66055;43.496;3.710;2023-01-15T00:58:18;9.40;78.80
61021;DHT22;66055;43.496;3.710;2023-01-15T01:00:44;9.40;78.50
61021;DHT22;66055;43.496;3.710;2023-01-15T01:03:10;9.40;79.00
61021;DHT22;66055;43.496;3.710;2023-01-15T01:05:35;9.30;78.70
61021;DHT22;66055;43.496;3.710;2023-01-15T01:08:01;9.30;78.90
61021;DHT22;66055;43.496;3.710;2023-01-15T01:10:27;9.30;78.40
61021;DHT22;66055;43.496;3.710;2023-01-15T01:12:53;9.30;78.90
61021;DHT22;66055;43.496;3.710;2023-01-15T01:15:19;9.30;79.30
61021;DHT22;66055;43.496;3.710;2023-01-15T01:17:45;9.30;79.40
61021;DHT22;66055;43.496;3.710;2023-01-15T01:20:13;9.20;79.60
61021;DHT22;66055;43.496;3.710;2023-01-15T01:22:39;9.20;79.80
61021;DHT22;66055;43.496;3.710;2023-01-15T01:25:06;9.10;79.40
61021;DHT22;66055;43.496;3.710;2023-01-15T01:27:32;9.10;79.90
61021;DHT22;66055;43.496;3.710;2023-01-15T01:29:57;9.10;80.00
61021;DHT22;66055;43.496;3.710;2023-01-15T01:32:23;9.00;79.80
61021;DHT22;66055;43.496;3.710;2023-01-15T01:34:49;9.00;80.20
61021;DHT22;66055;43.496;3.710;2023-01-15T01:37:14;9.00;80.20
61021;DHT22;66055;43.496;3.710;2023-01-15T01:39:40;9.00;80.30
61021;DHT22;66055;43.496;3.710;2023-01-15T01:42:12;8.90;80.40
61021;DHT22;66055;43.496;3.710;2023-01-15T01:47:12;8.90;80.30
61021;DHT22;66055;43.496;3.710;2023-01-15T01:49:41;8.80;80.50
61021;DHT22;66055;43.496;3.710;2023-01-15T01:52:16;8.80;80.50
61021;DHT22;66055;43.496;3.710;2023-01-15T01:54:45;8.80;81.10
61021;DHT22;66055;43.496;3.710;2023-01-15T01:57:12;8.80;80.60
61021;DHT22;66055;43.496;3.710;2023-01-15T01:59:38;8.80;80.90
61021;DHT22;66055;43.496;3.710;2023-01-15T02:02:04;8.80;80.80
61021;DHT22;66055;43.496;3.710;2023-01-15T02:04:30;8.80;80.90
61021;DHT22;66055;43.496;3.710;2023-01-15T02:06:59;8.80;81.20
61021;DHT22;66055;43.496;3.710;2023-01-15T02:09:25;8.70;81.00
61021;DHT22;66055;43.496;3.710;2023-01-15T02:11:52;8.70;81.10
61021;DHT22;66055;43.496;3.710;2023-01-15T02:14:25;8.70;81.20
61021;DHT22;66055;43.496;3.710;2023-01-15T02:17:18;8.70;81.40
61021;DHT22;66055;43.496;3.710;2023-01-15T02:30:52;8.70;81.90
61021;DHT22;66055;43.496;3.710;2023-01-15T02:33:29;8.80;82.10
61021;DHT22;66055;43.496;3.710;2023-01-15T02:35:58;8.80;82.00
61021;DHT22;66055;43.496;3.710;2023-01-15T02:38:28;8.80;81.70
61021;DHT22;66055;43.496;3.710;2023-01-15T02:40:58;8.90;81.60
61021;DHT22;66055;43.496;3.710;2023-01-15T02:43:28;8.90;81.40
61021;DHT22;66055;43.496;3.710;2023-01-15T02:45:57;9.00;81.00
61021;DHT22;66055;43.496;3.710;2023-01-15T02:48:27;9.00;80.80
61021;DHT22;66055;43.496;3.710;2023-01-15T02:51:01;9.00;80.60
61021;DHT22;66055;43.496;3.710;2023-01-15T02:53:29;9.10;80.30
61021;DHT22;66055;43.496;3.710;2023-01-15T02:56:00;9.10;80.20
61021;DHT22;66055;43.496;3.710;2023-01-15T02:58:32;9.20;80.70
61021;DHT22;66055;43.496;3.710;2023-01-15T03:01:01;9.20;80.20
61021;DHT22;66055;43.496;3.710;2023-01-15T03:06:07;9.20;80.00
61021;DHT22;66055;43.496;3.710;2023-01-15T03:08:33;9.20;80.30
61021;DHT22;66055;43.496;3.710;2023-01-15T03:11:08;9.30;80.20
61021;DHT22;66055;43.496;3.710;2023-01-15T03:19:06;9.30;80.00
61021;DHT22;66055;43.496;3.710;2023-01-15T03:24:10;9.30;80.00
61021;DHT22;66055;43.496;3.710;2023-01-15T03:26:37;9.30;80.20
61021;DHT22;66055;43.496;3.710;2023-01-15T03:29:04;9.30;79.90
61021;DHT22;66055;43.496;3.710;2023-01-15T03:31:33;9.30;79.70
61021;DHT22;66055;43.496;3.710;2023-01-15T03:33:58;9.30;79.80
61021;DHT22;66055;43.496;3.710;2023-01-15T03:36:24;9.30;79.90
61021;DHT22;66055;43.496;3.710;2023-01-15T03:38:50;9.30;79.70
61021;DHT22;66055;43.496;3.710;2023-01-15T03:41:24;9.40;79.50
61021;DHT22;66055;43.496;3.710;2023-01-15T03:57:10;9.30;79.40
61021;DHT22;66055;43.496;3.710;2023-01-15T03:59:43;9.30;79.20
61021;DHT22;66055;43.496;3.710;2023-01-15T04:02:12;9.30;79.30
61021;DHT22;66055;43.496;3.710;2023-01-15T04:04:39;9.30;78.90
61021;DHT22;66055;43.496;3.710;2023-01-15T04:07:06;9.20;79.50
61021;DHT22;66055;43.496;3.710;2023-01-15T04:09:36;9.20;79.50
61021;DHT22;66055;43.496;3.710;2023-01-15T04:12:03;9.30;79.30
61021;DHT22;66055;43.496;3.710;2023-01-15T04:14:30;9.20;79.50
61021;DHT22;66055;43.496;3.710;2023-01-15T04:16:55;9.30;79.80
61021;DHT22;66055;43.496;3.710;2023-01-15T04:19:21;9.30;80.00
61021;DHT22;66055;43.496;3.710;2023-01-15T04:21:47;9.30;79.80
61021;DHT22;66055;43.496;3.710;2023-01-15T04:24:12;9.30;79.90
61021;DHT22;66055;43.496;3.710;2023-01-15T04:26:38;9.30;79.90
61021;DHT22;66055;43.496;3.710;2023-01-15T04:29:04;9.30;79.90
61021;DHT22;66055;43.496;3.710;2023-01-15T04:31:30;9.30;80.20
61021;DHT22;66055;43.496;3.710;2023-01-15T04:33:58;9.30;80.00
61021;DHT22;66055;43.496;3.710;2023-01-15T04:36:24;9.30;80.10
61021;DHT22;66055;43.496;3.710;2023-01-15T04:38:50;9.30;80.20
61021;DHT22;66055;43.496;3.710;2023-01-15T04:41:15;9.20;80.60
61021;DHT22;66055;43.496;3.710;2023-01-15T04:44:00;9.20;80.60
61021;DHT22;66055;43.496;3.710;2023-01-15T04:46:36;9.20;80.80
61021;DHT22;66055;43.496;3.710;2023-01-15T04:49:04;9.10;80.70
61021;DHT22;66055;43.496;3.710;2023-01-15T04:51:29;9.10;81.10
61021;DHT22;66055;43.496;3.710;2023-01-15T04:53:55;9.00;81.20
61021;DHT22;66055;43.496;3.710;2023-01-15T04:56:21;9.00;81.30
61021;DHT22;66055;43.496;3.710;2023-01-15T04:58:47;9.00;81.20
61021;DHT22;66055;43.496;3.710;2023-01-15T05:01:14;9.10;81.30
61021;DHT22;66055;43.496;3.710;2023-01-15T05:03:41;9.10;81.30
61021;DHT22;66055;43.496;3.710;2023-01-15T05:06:08;9.10;81.40
61021;DHT22;66055;43.496;3.710;2023-01-15T05:08:34;9.10;81.40
61021;DHT22;66055;43.496;3.710;2023-01-15T05:11:05;9.10;81.30
61021;DHT22;66055;43.496;3.710;2023-01-15T05:13:31;9.00;81.50
61021;DHT22;66055;43.496;3.710;2023-01-15T05:16:22;9.00;81.70
61021;DHT22;66055;43.496;3.710;2023-01-15T05:18:52;9.00;81.60
61021;DHT22;66055;43.496;3.710;2023-01-15T05:23:49;8.90;81.60
61021;DHT22;66055;43.496;3.710;2023-01-15T05:26:15;8.90;81.60
61021;DHT22;66055;43.496;3.710;2023-01-15T05:28:41;8.80;81.90
61021;DHT22;66055;43.496;3.710;2023-01-15T05:31:17;8.80;82.00
61021;DHT22;66055;43.496;3.710;2023-01-15T05:33:45;8.80;82.20
61021;DHT22;66055;43.496;3.710;2023-01-15T05:36:13;8.80;82.30
61021;DHT22;66055;43.496;3.710;2023-01-15T05:38:40;8.70;82.40
61021;DHT22;66055;43.496;3.710;2023-01-15T05:41:06;8.70;82.40
61021;DHT22;66055;43.496;3.710;2023-01-15T05:43:53;8.70;82.50
61021;DHT22;66055;43.496;3.710;2023-01-15T05:46:18;8.70;82.80
61021;DHT22;66055;43.496;3.710;2023-01-15T05:48:44;8.70;82.70
61021;DHT22;66055;43.496;3.710;2023-01-15T05:51:10;8.70;82.40
61021;DHT22;66055;43.496;3.710;2023-01-15T05:53:36;8.70;82.50
61021;DHT22;66055;43.496;3.710;2023-01-15T05:56:03;8.70;82.60
61021;DHT22;66055;43.496;3.710;2023-01-15T05:58:28;8.70;82.40
61021;DHT22;66055;43.496;3.710;2023-01-15T06:00:54;8.70;82.60
61021;DHT22;66055;43.496;3.710;2023-01-15T06:03:21;8.70;82.50
61021;DHT22;66055;43.496;3.710;2023-01-15T06:05:54;8.60;81.70
61021;DHT22;66055;43.496;3.710;2023-01-15T06:08:21;8.60;82.30
61021;DHT22;66055;43.496;3.710;2023-01-15T06:10:47;8.60;82.60
61021;DHT22;66055;43.496;3.710;2023-01-15T06:13:14;8.50;82.60
61021;DHT22;66055;43.496;3.710;2023-01-15T06:15:40;8.50;82.80
61021;DHT22;66055;43.496;3.710;2023-01-15T06:18:06;8.50;82.80
61021;DHT22;66055;43.496;3.710;2023-01-15T06:20:35;8.40;82.50
61021;DHT22;66055;43.496;3.710;2023-01-15T06:23:01;8.40;82.70
61021;DHT22;66055;43.496;3.710;2023-01-15T06:25:26;8.40;82.70
61021;DHT22;66055;43.496;3.710;2023-01-15T06:27:52;8.40;82.60
61021;DHT22;66055;43.496;3.710;2023-01-15T06:30:18;8.30;82.60
61021;DHT22;66055;43.496;3.710;2023-01-15T06:32:44;8.30;82.20
61021;DHT22;66055;43.496;3.710;2023-01-15T06:35:10;8.30;82.40
61021;DHT22;66055;43.496;3.710;2023-01-15T06:37:36;8.20;82.50
61021;DHT22;66055;43.496;3.710;2023-01-15T06:40:02;8.20;82.60
61021;DHT22;66055;43.496;3.710;2023-01-15T06:42:28;8.20;82.80
61021;DHT22;66055;43.496;3.710;2023-01-15T06:45:12;8.10;83.00
61021;DHT22;66055;43.496;3.710;2023-01-15T06:47:57;8.10;83.10
61021;DHT22;66055;43.496;3.710;2023-01-15T06:50:23;8.10;83.00
61021;DHT22;66055;43.496;3.710;2023-01-15T06:52:50;8.00;82.70
61021;DHT22;66055;43.496;3.710;2023-01-15T06:55:16;8.00;82.90
61021;DHT22;66055;43.496;3.710;2023-01-15T06:57:43;8.00;82.80
61021;DHT22;66055;43.496;3.710;2023-01-15T07:00:11;8.00;82.70
61021;DHT22;66055;43.496;3.710;2023-01-15T07:02:37;8.00;82.80
61021;DHT22;66055;43.496;3.710;2023-01-15T07:05:04;8.00;82.90
61021;DHT22;66055;43.496;3.710;2023-01-15T07:07:31;8.00;83.00
61021;DHT22;66055;43.496;3.710;2023-01-15T07:09:56;7.90;82.90
61021;DHT22;66055;43.496;3.710;2023-01-15T07:12:22;7.90;82.60
61021;DHT22;66055;43.496;3.710;2023-01-15T07:14:48;7.90;82.70
61021;DHT22;66055;43.496;3.710;2023-01-15T07:17:14;7.80;81.80
61021;DHT22;66055;43.496;3.710;2023-01-15T07:19:40;7.70;81.70
61021;DHT22;66055;43.496;3.710;2023-01-15T07:22:06;7.70;81.90
61021;DHT22;66055;43.496;3.710;2023-01-15T07:24:32;7.70;81.80
61021;DHT22;66055;43.496;3.710;2023-01-15T07:26:58;7.60;81.60
61021;DHT22;66055;43.496;3.710;2023-01-15T07:29:24;7.50;81.80
61021;DHT22;66055;43.496;3.710;2023-01-15T07:31:51;7.60;82.30
61021;DHT22;66055;43.496;3.710;2023-01-15T07:34:17;7.70;82.50
61021;DHT22;66055;43.496;3.710;2023-01-15T07:36:43;7.70;82.50
61021;DHT22;66055;43.496;3.710;2023-01-15T07:39:10;7.70;82.30
61021;DHT22;66055;43.496;3.710;2023-01-15T07:41:36;7.70;82.60
61021;DHT22;66055;43.496;3.710;2023-01-15T07:44:21;7.70;81.90
61021;DHT22;66055;43.496;3.710;2023-01-15T07:47:18;7.70;82.10
61021;DHT22;66055;43.496;3.710;2023-01-15T07:50:05;7.70;81.60
61021;DHT22;66055;43.496;3.710;2023-01-15T07:52:32;7.70;81.10
61021;DHT22;66055;43.496;3.710;2023-01-15T07:54:58;7.70;81.70
61021;DHT22;66055;43.496;3.710;2023-01-15T07:57:24;7.80;82.10
61021;DHT22;66055;43.496;3.710;2023-01-15T07:59:49;7.80;82.00
61021;DHT22;66055;43.496;3.710;2023-01-15T08:02:15;7.80;82.00
61021;DHT22;66055;43.496;3.710;2023-01-15T08:04:41;7.80;82.00
61021;DHT22;66055;43.496;3.710;2023-01-15T08:07:08;7.80;82.10
61021;DHT22;66055;43.496;3.710;2023-01-15T08:09:34;7.80;82.00
61021;DHT22;66055;43.496;3.710;2023-01-15T08:12:02;7.90;82.00
61021;DHT22;66055;43.496;3.710;2023-01-15T08:14:46;7.90;81.90
61021;DHT22;66055;43.496;3.710;2023-01-15T08:17:34;7.90;80.80
61021;DHT22;66055;43.496;3.710;2023-01-15T08:20:01;7.90;80.70
61021;DHT22;66055;43.496;3.710;2023-01-15T08:22:27;8.00;81.20
61021;DHT22;66055;43.496;3.710;2023-01-15T08:24:53;8.00;80.90
61021;DHT22;66055;43.496;3.710;2023-01-15T08:27:19;8.10;80.80
61021;DHT22;66055;43.496;3.710;2023-01-15T08:29:44;8.10;80.60
61021;DHT22;66055;43.496;3.710;2023-01-15T08:32:10;8.10;80.20
61021;DHT22;66055;43.496;3.710;2023-01-15T08:34:36;8.10;79.90
61021;DHT22;66055;43.496;3.710;2023-01-15T08:37:02;8.10;80.00
61021;DHT22;66055;43.496;3.710;2023-01-15T08:39:28;8.20;79.90
61021;DHT22;66055;43.496;3.710;2023-01-15T08:41:54;8.20;79.60
61021;DHT22;66055;43.496;3.710;2023-01-15T08:44:20;8.20;79.60
61021;DHT22;66055;43.496;3.710;2023-01-15T08:46:48;8.20;79.50
61021;DHT22;66055;43.496;3.710;2023-01-15T08:49:14;8.40;80.20
61021;DHT22;66055;43.496;3.710;2023-01-15T08:51:39;8.50;80.40
61021;DHT22;66055;43.496;3.710;2023-01-15T08:54:05;8.60;79.70
61021;DHT22;66055;43.496;3.710;2023-01-15T08:56:31;8.70;79.40
61021;DHT22;66055;43.496;3.710;2023-01-15T08:58:57;8.70;79.10
61021;DHT22;66055;43.496;3.710;2023-01-15T09:01:22;8.80;78.80
61021;DHT22;66055;43.496;3.710;2023-01-15T09:03:48;8.80;79.10
61021;DHT22;66055;43.496;3.710;2023-01-15T09:06:14;8.90;79.50
61021;DHT22;66055;43.496;3.710;2023-01-15T09:08:39;8.80;79.60
61021;DHT22;66055;43.496;3.710;2023-01-15T09:11:07;8.90;79.70
61021;DHT22;66055;43.496;3.710;2023-01-15T09:13:35;8.90;80.40
61021;DHT22;66055;43.496;3.710;2023-01-15T09:16:02;9.00;80.50
61021;DHT22;66055;43.496;3.710;2023-01-15T09:18:28;9.10;80.40
61021;DHT22;66055;43.496;3.710;2023-01-15T09:20:54;9.30;80.50
61021;DHT22;66055;43.496;3.710;2023-01-15T09:23:20;9.60;80.30
61021;DHT22;66055;43.496;3.710;2023-01-15T09:26:00;9.80;79.20
61021;DHT22;66055;43.496;3.710;2023-01-15T09:28:27;9.90;78.10
61021;DHT22;66055;43.496;3.710;2023-01-15T09:30:53;10.00;78.00
61021;DHT22;66055;43.496;3.710;2023-01-15T09:33:19;10.10;77.90
61021;DHT22;66055;43.496;3.710;2023-01-15T09:35:45;10.00;77.90
61021;DHT22;66055;43.496;3.710;2023-01-15T09:38:16;9.90;78.10
61021;DHT22;66055;43.496;3.710;2023-01-15T09:40:55;9.90;78.30
61021;DHT22;66055;43.496;3.710;2023-01-15T09:43:37;9.90;78.80
61021;DHT22;66055;43.496;3.710;2023-01-15T09:46:16;9.90;79.00
61021;DHT22;66055;43.496;3.710;2023-01-15T09:51:51;10.10;79.10
61021;DHT22;66055;43.496;3.710;2023-01-15T09:54:36;10.30;78.70
61021;DHT22;66055;43.496;3.710;2023-01-15T09:57:14;10.40;77.90
61021;DHT22;66055;43.496;3.710;2023-01-15T09:59:46;10.60;76.30
61021;DHT22;66055;43.496;3.710;2023-01-15T10:02:19;10.80;74.70
61021;DHT22;66055;43.496;3.710;2023-01-15T10:04:53;10.80;74.20
61021;DHT22;66055;43.496;3.710;2023-01-15T10:10:04;10.80;74.30
61021;DHT22;66055;43.496;3.710;2023-01-15T10:12:31;10.90;73.50
61021;DHT22;66055;43.496;3.710;2023-01-15T10:17:43;11.20;72.50
61021;DHT22;66055;43.496;3.710;2023-01-15T10:26:21;11.80;69.80
61021;DHT22;66055;43.496;3.710;2023-01-15T10:28:31;12.10;69.40
61021;DHT22;66055;43.496;3.710;2023-01-15T10:31:16;12.40;67.20
61021;DHT22;66055;43.496;3.710;2023-01-15T10:41:56;12.50;61.90
61021;DHT22;66055;43.496;3.710;2023-01-15T10:47:24;12.60;61.40
61021;DHT22;66055;43.496;3.710;2023-01-15T10:49:51;12.60;61.70
61021;DHT22;66055;43.496;3.710;2023-01-15T10:52:31;12.60;61.00
61021;DHT22;66055;43.496;3.710;2023-01-15T10:55:33;12.50;60.80
61021;DHT22;66055;43.496;3.710;2023-01-15T11:00:34;12.50;61.00
61021;DHT22;66055;43.496;3.710;2023-01-15T11:03:03;12.50;60.50
61021;DHT22;66055;43.496;3.710;2023-01-15T11:05:40;12.50;60.90
61021;DHT22;66055;43.496;3.710;2023-01-15T11:08:10;12.40;60.20
61021;DHT22;66055;43.496;3.710;2023-01-15T11:10:38;12.40;60.80
61021;DHT22;66055;43.496;3.710;2023-01-15T11:15:58;12.30;60.70
61021;DHT22;66055;43.496;3.710;2023-01-15T11:18:43;12.40;59.90
61021;DHT22;66055;43.496;3.710;2023-01-15T11:21:28;12.40;59.70
61021;DHT22;66055;43.496;3.710;2023-01-15T11:23:56;12.30;59.50
61021;DHT22;66055;43.496;3.710;2023-01-15T11:26:28;12.30;59.60
61021;DHT22;66055;43.496;3.710;2023-01-15T11:28:55;12.30;60.00
61021;DHT22;66055;43.496;3.710;2023-01-15T11:31:33;12.40;59.40
61021;DHT22;66055;43.496;3.710;2023-01-15T11:34:03;12.40;59.30
61021;DHT22;66055;43.496;3.710;2023-01-15T11:36:31;12.40;58.90
61021;DHT22;66055;43.496;3.710;2023-01-15T11:38:57;12.40;59.10
61021;DHT22;66055;43.496;3.710;2023-01-15T11:43:56;12.30;59.00
61021;DHT22;66055;43.496;3.710;2023-01-15T11:46:41;12.20;59.40
61021;DHT22;66055;43.496;3.710;2023-01-15T11:49:28;12.20;59.40
61021;DHT22;66055;43.496;3.710;2023-01-15T11:52:19;12.20;59.40
61021;DHT22;66055;43.496;3.710;2023-01-15T11:54:50;12.20;59.30
61021;DHT22;66055;43.496;3.710;2023-01-15T11:57:29;12.20;59.40
61021;DHT22;66055;43.496;3.710;2023-01-15T11:59:56;12.30;59.40
61021;DHT22;66055;43.496;3.710;2023-01-15T12:04:57;12.30;59.20
61021;DHT22;66055;43.496;3.710;2023-01-15T12:07:24;12.40;59.40
61021;DHT22;66055;43.496;3.710;2023-01-15T12:13:03;12.40;57.90
61021;DHT22;66055;43.496;3.710;2023-01-15T12:15:56;12.30;58.20
61021;DHT22;66055;43.496;3.710;2023-01-15T12:29:31;12.00;56.10
61021;DHT22;66055;43.496;3.710;2023-01-15T12:32:10;11.80;55.10
61021;DHT22;66055;43.496;3.710;2023-01-15T12:37:18;11.60;55.50
61021;DHT22;66055;43.496;3.710;2023-01-15T12:42:21;11.50;56.00
61021;DHT22;66055;43.496;3.710;2023-01-15T12:45:11;11.50;56.00
61021;DHT22;66055;43.496;3.710;2023-01-15T12:47:45;11.40;56.70
61021;DHT22;66055;43.496;3.710;2023-01-15T12:50:43;11.40;57.40
61021;DHT22;66055;43.496;3.710;2023-01-15T13:06:41;11.10;58.10
61021;DHT22;66055;43.496;3.710;2023-01-15T13:09:39;11.10;57.80
61021;DHT22;66055;43.496;3.710;2023-01-15T13:12:15;11.00;57.90
61021;DHT22;66055;43.496;3.710;2023-01-15T13:14:42;11.00;57.30
61021;DHT22;66055;43.496;3.710;2023-01-15T13:20:57;11.00;57.20
61021;DHT22;66055;43.496;3.710;2023-01-15T13:33:59;10.90;56.70
61021;DHT22;66055;43.496;3.710;2023-01-15T13:36:32;11.00;56.80
61021;DHT22;66055;43.496;3.710;2023-01-15T13:39:02;11.00;57.00
61021;DHT22;66055;43.496;3.710;2023-01-15T13:41:31;11.00;57.10
61021;DHT22;66055;43.496;3.710;2023-01-15T13:44:31;10.90;56.90
61021;DHT22;66055;43.496;3.710;2023-01-15T13:47:03;10.90;57.00
61021;DHT22;66055;43.496;3.710;2023-01-15T13:49:44;10.90;57.00
61021;DHT22;66055;43.496;3.710;2023-01-15T13:52:28;10.80;57.30
61021;DHT22;66055;43.496;3.710;2023-01-15T13:54:59;10.80;57.70
61021;DHT22;66055;43.496;3.710;2023-01-15T13:57:34;10.80;57.60
61021;DHT22;66055;43.496;3.710;2023-01-15T14:00:03;10.80;57.70
61021;DHT22;66055;43.496;3.710;2023-01-15T14:02:32;10.80;58.00
61021;DHT22;66055;43.496;3.710;2023-01-15T14:05:00;10.80;57.90
61021;DHT22;66055;43.496;3.710;2023-01-15T14:07:36;10.80;58.20
61021;DHT22;66055;43.496;3.710;2023-01-15T14:19:09;10.80;58.60
61021;DHT22;66055;43.496;3.710;2023-01-15T14:27:05;11.00;58.30
61021;DHT22;66055;43.496;3.710;2023-01-15T14:35:18;11.20;59.20
61021;DHT22;66055;43.496;3.710;2023-01-15T14:37:49;11.30;58.00
61021;DHT22;66055;43.496;3.710;2023-01-15T14:40:31;11.30;57.40
61021;DHT22;66055;43.496;3.710;2023-01-15T14:43:00;11.30;57.80
61021;DHT22;66055;43.496;3.710;2023-01-15T14:45:39;11.30;57.50
61021;DHT22;66055;43.496;3.710;2023-01-15T14:48:33;11.30;58.70
61021;DHT22;66055;43.496;3.710;2023-01-15T14:51:16;11.20;57.70
61021;DHT22;66055;43.496;3.710;2023-01-15T14:53:49;11.20;58.50
61021;DHT22;66055;43.496;3.710;2023-01-15T15:06:59;11.00;58.20
61021;DHT22;66055;43.496;3.710;2023-01-15T15:10:03;10.90;58.00
61021;DHT22;66055;43.496;3.710;2023-01-15T15:15:11;10.90;57.60
61021;DHT22;66055;43.496;3.710;2023-01-15T15:22:46;10.90;56.00
61021;DHT22;66055;43.496;3.710;2023-01-15T15:25:20;10.90;57.20
61021;DHT22;66055;43.496;3.710;2023-01-15T15:27:47;10.90;57.30
61021;DHT22;66055;43.496;3.710;2023-01-15T15:30:12;10.80;57.50
61021;DHT22;66055;43.496;3.710;2023-01-15T15:32:42;10.70;57.70
61021;DHT22;66055;43.496;3.710;2023-01-15T15:35:26;10.70;57.50
61021;DHT22;66055;43.496;3.710;2023-01-15T15:37:53;10.60;57.50
61021;DHT22;66055;43.496;3.710;2023-01-15T15:40:24;10.60;57.60
61021;DHT22;66055;43.496;3.710;2023-01-15T15:43:09;10.50;57.20
61021;DHT22;66055;43.496;3.710;2023-01-15T15:45:56;10.50;57.00
61021;DHT22;66055;43.496;3.710;2023-01-15T15:48:43;10.50;56.70
61021;DHT22;66055;43.496;3.710;2023-01-15T15:54:17;10.50;56.30
61021;DHT22;66055;43.496;3.710;2023-01-15T16:02:36;10.40;56.50
61021;DHT22;66055;43.496;3.710;2023-01-15T16:05:25;10.30;56.60
61021;DHT22;66055;43.496;3.710;2023-01-15T16:07:52;10.30;56.00
61021;DHT22;66055;43.496;3.710;2023-01-15T16:10:25;10.30;55.70
61021;DHT22;66055;43.496;3.710;2023-01-15T16:12:53;10.20;56.20
61021;DHT22;66055;43.496;3.710;2023-01-15T16:15:24;10.20;56.60
61021;DHT22;66055;43.496;3.710;2023-01-15T16:17:53;10.10;56.00
61021;DHT22;66055;43.496;3.710;2023-01-15T16:20:19;10.10;56.30
61021;DHT22;66055;43.496;3.710;2023-01-15T16:22:58;10.00;56.30
61021;DHT22;66055;43.496;3.710;2023-01-15T16:25:36;10.00;56.20
61021;DHT22;66055;43.496;3.710;2023-01-15T16:28:03;10.00;56.20
61021;DHT22;66055;43.496;3.710;2023-01-15T16:30:30;10.00;56.10
61021;DHT22;66055;43.496;3.710;2023-01-15T16:33:03;9.90;56.50
61021;DHT22;66055;43.496;3.710;2023-01-15T16:35:32;9.90;56.60
61021;DHT22;66055;43.496;3.710;2023-01-15T16:38:00;9.90;57.40
61021;DHT22;66055;43.496;3.710;2023-01-15T16:40:38;9.80;56.50
61021;DHT22;66055;43.496;3.710;2023-01-15T16:43:14;9.80;56.50
61021;DHT22;66055;43.496;3.710;2023-01-15T16:48:35;9.60;56.40
61021;DHT22;66055;43.496;3.710;2023-01-15T16:51:32;9.60;56.70
61021;DHT22;66055;43.496;3.710;2023-01-15T16:54:04;9.60;56.20
61021;DHT22;66055;43.496;3.710;2023-01-15T16:59:03;9.50;55.80
61021;DHT22;66055;43.496;3.710;2023-01-15T17:01:36;9.50;55.70
61021;DHT22;66055;43.496;3.710;2023-01-15T17:04:03;9.40;55.90
61021;DHT22;66055;43.496;3.710;2023-01-15T17:06:40;9.40;55.60
61021;DHT22;66055;43.496;3.710;2023-01-15T17:09:13;9.40;56.00
61021;DHT22;66055;43.496;3.710;2023-01-15T17:11:40;9.40;55.80
61021;DHT22;66055;43.496;3.710;2023-01-15T17:14:18;9.40;55.80
61021;DHT22;66055;43.496;3.710;2023-01-15T17:16:44;9.30;56.00
61021;DHT22;66055;43.496;3.710;2023-01-15T17:19:10;9.30;56.10
61021;DHT22;66055;43.496;3.710;2023-01-15T17:21:37;9.30;55.60
61021;DHT22;66055;43.496;3.710;2023-01-15T17:24:07;9.30;56.20
61021;DHT22;66055;43.496;3.710;2023-01-15T17:26:35;9.30;55.80
61021;DHT22;66055;43.496;3.710;2023-01-15T17:29:01;9.30;56.50
61021;DHT22;66055;43.496;3.710;2023-01-15T17:31:32;9.30;56.00
61021;DHT22;66055;43.496;3.710;2023-01-15T17:33:59;9.20;56.40
61021;DHT22;66055;43.496;3.710;2023-01-15T17:36:26;9.20;56.30
61021;DHT22;66055;43.496;3.710;2023-01-15T17:38:53;9.20;56.50
61021;DHT22;66055;43.496;3.710;2023-01-15T17:41:20;9.20;55.90
61021;DHT22;66055;43.496;3.710;2023-01-15T17:43:46;9.20;55.90
61021;DHT22;66055;43.496;3.710;2023-01-15T17:46:12;9.20;55.70
61021;DHT22;66055;43.496;3.710;2023-01-15T17:48:38;9.20;55.80
61021;DHT22;66055;43.496;3.710;2023-01-15T17:51:14;9.20;55.50
61021;DHT22;66055;43.496;3.710;2023-01-15T17:53:40;9.10;55.50
61021;DHT22;66055;43.496;3.710;2023-01-15T17:56:06;9.10;55.70
61021;DHT22;66055;43.496;3.710;2023-01-15T17:58:51;9.10;56.10
61021;DHT22;66055;43.496;3.710;2023-01-15T18:01:38;9.10;56.60
61021;DHT22;66055;43.496;3.710;2023-01-15T18:04:45;9.00;57.10
61021;DHT22;66055;43.496;3.710;2023-01-15T18:07:36;9.00;57.50
61021;DHT22;66055;43.496;3.710;2023-01-15T18:10:09;9.00;59.30
61021;DHT22;66055;43.496;3.710;2023-01-15T18:12:41;9.00;59.80
61021;DHT22;66055;43.496;3.710;2023-01-15T18:15:07;9.00;60.00
61021;DHT22;66055;43.496;3.710;2023-01-15T18:17:33;9.00;59.60
61021;DHT22;66055;43.496;3.710;2023-01-15T18:19:59;9.00;60.40
61021;DHT22;66055;43.496;3.710;2023-01-15T18:22:24;9.00;60.20
61021;DHT22;66055;43.496;3.710;2023-01-15T18:24:50;9.00;61.80
61021;DHT22;66055;43.496;3.710;2023-01-15T18:27:16;9.00;62.00
61021;DHT22;66055;43.496;3.710;2023-01-15T18:29:41;9.00;61.70
61021;DHT22;66055;43.496;3.710;2023-01-15T18:32:08;9.00;61.50
61021;DHT22;66055;43.496;3.710;2023-01-15T18:34:35;9.00;62.50
61021;DHT22;66055;43.496;3.710;2023-01-15T18:37:01;8.90;62.40
61021;DHT22;66055;43.496;3.710;2023-01-15T18:39:26;8.90;61.80
61021;DHT22;66055;43.496;3.710;2023-01-15T18:41:52;8.90;61.90
61021;DHT22;66055;43.496;3.710;2023-01-15T18:44:20;8.80;63.10
61021;DHT22;66055;43.496;3.710;2023-01-15T18:47:10;8.80;63.50
61021;DHT22;66055;43.496;3.710;2023-01-15T18:49:37;8.80;64.00
61021;DHT22;66055;43.496;3.710;2023-01-15T18:52:04;8.80;62.60
61021;DHT22;66055;43.496;3.710;2023-01-15T18:54:48;8.80;63.50
61021;DHT22;66055;43.496;3.710;2023-01-15T18:57:15;8.80;61.60
61021;DHT22;66055;43.496;3.710;2023-01-15T18:59:42;8.80;62.30